sensor_id;sensor_type;location;lat;lon;timestamp;P1;durP1;ratioP1;P2;durP2;ratioP2
30934;SDS011;51033;42.648;23.292;2023-05-19T00:01:43;6.32;;;5.50;;
30934;SDS011;51033;42.648;23.292;2023-05-19T00:04:12;8.93;;;4.63;;
30934;SDS011;51033;42.648;23.292;2023-05-19T00:06:38;6.00;;;5.15;;
30934;SDS011;51033;42.648;23.292;2023-05-19T00:09:06;9.60;;;5.43;;
30934;SDS011;51033;42.648;23.292;2023-05-19T00:11:36;4.47;;;4.03;;
30934;SDS011;51033;42.648;23.292;2023-05-19T00:14:06;8.02;;;5.18;;
30934;SDS011;51033;42.648;23.292;2023-05-19T00:16:33;5.85;;;5.18;;
30934;SDS011;51033;42.648;23.292;2023-05-19T00:19:00;6.93;;;4.65;;
30934;SDS011;51033;42.648;23.292;2023-05-19T00:21:28;5.97;;;4.40;;
30934;SDS011;51033;42.648;23.292;2023-05-19T00:23:54;8.52;;;4.05;;
30934;SDS011;51033;42.648;23.292;2023-05-19T00:26:20;5.90;;;4.95;;
30934;SDS011;51033;42.648;23.292;2023-05-19T00:28:47;6.05;;;4.68;;
30934;SDS011;51033;42.648;23.292;2023-05-19T00:31:13;8.30;;;4.65;;
30934;SDS011;51033;42.648;23.292;2023-05-19T00:33:39;6.57;;;4.72;;
30934;SDS011;51033;42.648;23.292;2023-05-19T00:36:04;5.68;;;4.65;;
30934;SDS011;51033;42.648;23.292;2023-05-19T00:38:30;5.45;;;4.75;;
30934;SDS011;51033;42.648;23.292;2023-05-19T00:40:56;7.15;;;4.90;;
30934;SDS011;51033;42.648;23.292;2023-05-19T00:43:21;5.38;;;4.40;;
30934;SDS011;51033;42.648;23.292;2023-05-19T00:45:47;5.00;;;4.43;;
30934;SDS011;51033;42.648;23.292;2023-05-19T00:48:12;9.23;;;4.50;;
30934;SDS011;51033;42.648;23.292;2023-05-19T00:50:38;7.00;;;4.18;;
30934;SDS011;51033;42.648;23.292;2023-05-19T00:53:05;4.28;;;3.85;;
30934;SDS011;51033;42.648;23.292;2023-05-19T00:55:30;6.10;;;4.75;;
30934;SDS011;51033;42.648;23.292;2023-05-19T00:57:58;6.88;;;4.60;;
30934;SDS011;51033;42.648;23.292;2023-05-19T01:00:24;7.28;;;4.45;;
30934;SDS011;51033;42.648;23.292;2023-05-19T01:02:49;5.32;;;4.10;;
30934;SDS011;51033;42.648;23.292;2023-05-19T01:05:15;4.70;;;4.18;;
30934;SDS011;51033;42.648;23.292;2023-05-19T01:07:41;6.68;;;4.78;;
30934;SDS011;51033;42.648;23.292;2023-05-19T01:10:07;5.00;;;4.53;;
30934;SDS011;51033;42.648;23.292;2023-05-19T01:12:33;8.25;;;4.25;;
30934;SDS011;51033;42.648;23.292;2023-05-19T01:15:00;11.07;;;4.57;;
30934;SDS011;51033;42.648;23.292;2023-05-19T01:20:23;9.23;;;4.93;;
30934;SDS011;51033;42.648;23.292;2023-05-19T01:23:11;6.03;;;5.10;;
30934;SDS011;51033;42.648;23.292;2023-05-19T01:31:18;7.17;;;4.90;;
30934;SDS011;51033;42.648;23.292;2023-05-19T01:33:47;5.10;;;4.60;;
30934;SDS011;51033;42.648;23.292;2023-05-19T01:36:15;4.68;;;4.22;;
30934;SDS011;51033;42.648;23.292;2023-05-19T01:38:43;7.82;;;5.30;;
30934;SDS011;51033;42.648;23.292;2023-05-19T01:41:10;4.93;;;4.20;;
30934;SDS011;51033;42.648;23.292;2023-05-19T01:43:36;5.95;;;4.43;;
30934;SDS011;51033;42.648;23.292;2023-05-19T01:46:02;6.13;;;4.60;;
30934;SDS011;51033;42.648;23.292;2023-05-19T01:48:29;7.80;;;4.65;;
30934;SDS011;51033;42.648;23.292;2023-05-19T01:50:56;7.72;;;5.05;;
30934;SDS011;51033;42.648;23.292;2023-05-19T01:53:22;5.60;;;4.90;;
30934;SDS011;51033;42.648;23.292;2023-05-19T01:55:49;6.05;;;5.43;;
30934;SDS011;51033;42.648;23.292;2023-05-19T01:58:17;5.88;;;5.28;;
30934;SDS011;51033;42.648;23.292;2023-05-19T02:12:10;7.50;;;5.90;;
30934;SDS011;51033;42.648;23.292;2023-05-19T02:14:46;10.52;;;5.88;;
30934;SDS011;51033;42.648;23.292;2023-05-19T02:17:15;7.47;;;6.35;;
30934;SDS011;51033;42.648;23.292;2023-05-19T02:19:42;11.07;;;6.10;;
30934;SDS011;51033;42.648;23.292;2023-05-19T02:22:08;8.70;;;6.90;;
30934;SDS011;51033;42.648;23.292;2023-05-19T02:24:33;11.27;;;7.63;;
30934;SDS011;51033;42.648;23.292;2023-05-19T02:26:59;9.73;;;6.70;;
30934;SDS011;51033;42.648;23.292;2023-05-19T02:29:24;7.55;;;6.32;;
30934;SDS011;51033;42.648;23.292;2023-05-19T02:31:49;9.45;;;7.22;;
30934;SDS011;51033;42.648;23.292;2023-05-19T02:34:15;9.35;;;6.60;;
30934;SDS011;51033;42.648;23.292;2023-05-19T02:36:41;9.18;;;6.82;;
30934;SDS011;51033;42.648;23.292;2023-05-19T02:39:07;8.85;;;7.10;;
30934;SDS011;51033;42.648;23.292;2023-05-19T02:41:34;9.75;;;7.65;;
30934;SDS011;51033;42.648;23.292;2023-05-19T02:44:00;9.40;;;6.68;;
30934;SDS011;51033;42.648;23.292;2023-05-19T02:46:25;10.52;;;7.43;;
30934;SDS011;51033;42.648;23.292;2023-05-19T02:48:51;9.10;;;7.30;;
30934;SDS011;51033;42.648;23.292;2023-05-19T02:51:17;10.00;;;8.23;;
30934;SDS011;51033;42.648;23.292;2023-05-19T02:53:42;10.23;;;7.95;;
30934;SDS011;51033;42.648;23.292;2023-05-19T02:56:08;10.95;;;7.75;;
30934;SDS011;51033;42.648;23.292;2023-05-19T02:58:33;15.43;;;7.88;;
30934;SDS011;51033;42.648;23.292;2023-05-19T03:00:58;11.65;;;7.82;;
30934;SDS011;51033;42.648;23.292;2023-05-19T03:03:24;9.63;;;8.43;;
30934;SDS011;51033;42.648;23.292;2023-05-19T03:05:51;11.43;;;8.55;;
30934;SDS011;51033;42.648;23.292;2023-05-19T03:08:17;10.65;;;8.45;;
30934;SDS011;51033;42.648;23.292;2023-05-19T03:10:44;9.73;;;7.75;;
30934;SDS011;51033;42.648;23.292;2023-05-19T03:13:10;11.70;;;9.07;;
30934;SDS011;51033;42.648;23.292;2023-05-19T03:15:35;12.85;;;9.30;;
30934;SDS011;51033;42.648;23.292;2023-05-19T03:18:01;11.38;;;8.85;;
30934;SDS011;51033;42.648;23.292;2023-05-19T03:20:26;12.40;;;8.63;;
30934;SDS011;51033;42.648;23.292;2023-05-19T03:22:51;16.90;;;8.48;;
30934;SDS011;51033;42.648;23.292;2023-05-19T03:25:17;12.00;;;7.80;;
30934;SDS011;51033;42.648;23.292;2023-05-19T03:27:42;12.32;;;8.82;;
30934;SDS011;51033;42.648;23.292;2023-05-19T03:30:08;11.27;;;9.38;;
30934;SDS011;51033;42.648;23.292;2023-05-19T03:32:33;12.40;;;9.73;;
30934;SDS011;51033;42.648;23.292;2023-05-19T03:35:02;13.60;;;9.85;;
30934;SDS011;51033;42.648;23.292;2023-05-19T03:37:29;13.18;;;9.30;;
30934;SDS011;51033;42.648;23.292;2023-05-19T03:39:54;11.52;;;9.25;;
30934;SDS011;51033;42.648;23.292;2023-05-19T03:42:19;12.18;;;9.55;;
30934;SDS011;51033;42.648;23.292;2023-05-19T03:44:45;11.98;;;9.88;;
30934;SDS011;51033;42.648;23.292;2023-05-19T03:47:10;14.30;;;9.57;;
30934;SDS011;51033;42.648;23.292;2023-05-19T03:49:36;12.73;;;9.55;;
30934;SDS011;51033;42.648;23.292;2023-05-19T03:52:01;10.85;;;8.65;;
30934;SDS011;51033;42.648;23.292;2023-05-19T03:54:27;11.95;;;10.00;;
30934;SDS011;51033;42.648;23.292;2023-05-19T03:56:52;11.68;;;9.50;;
30934;SDS011;51033;42.648;23.292;2023-05-19T03:59:18;11.48;;;9.05;;
30934;SDS011;51033;42.648;23.292;2023-05-19T04:01:43;14.27;;;10.18;;
30934;SDS011;51033;42.648;23.292;2023-05-19T04:04:10;12.55;;;9.63;;
30934;SDS011;51033;42.648;23.292;2023-05-19T04:06:35;12.48;;;9.23;;
30934;SDS011;51033;42.648;23.292;2023-05-19T04:09:02;12.75;;;9.07;;
30934;SDS011;51033;42.648;23.292;2023-05-19T04:11:35;12.45;;;9.40;;
30934;SDS011;51033;42.648;23.292;2023-05-19T04:14:01;13.60;;;10.15;;
30934;SDS011;51033;42.648;23.292;2023-05-19T04:16:26;13.55;;;9.40;;
30934;SDS011;51033;42.648;23.292;2023-05-19T04:18:51;14.70;;;9.32;;
30934;SDS011;51033;42.648;23.292;2023-05-19T04:21:17;13.88;;;9.77;;
30934;SDS011;51033;42.648;23.292;2023-05-19T04:23:42;13.55;;;9.90;;
30934;SDS011;51033;42.648;23.292;2023-05-19T04:26:08;10.65;;;8.82;;
30934;SDS011;51033;42.648;23.292;2023-05-19T04:28:33;13.02;;;9.80;;
30934;SDS011;51033;42.648;23.292;2023-05-19T04:31:02;12.70;;;9.68;;
30934;SDS011;51033;42.648;23.292;2023-05-19T04:33:28;15.80;;;9.85;;
30934;SDS011;51033;42.648;23.292;2023-05-19T04:35:53;12.85;;;9.75;;
30934;SDS011;51033;42.648;23.292;2023-05-19T04:38:19;11.85;;;8.95;;
30934;SDS011;51033;42.648;23.292;2023-05-19T04:40:46;11.43;;;8.63;;
30934;SDS011;51033;42.648;23.292;2023-05-19T04:43:14;11.80;;;9.30;;
30934;SDS011;51033;42.648;23.292;2023-05-19T04:45:39;12.52;;;10.25;;
30934;SDS011;51033;42.648;23.292;2023-05-19T04:48:06;14.07;;;9.38;;
30934;SDS011;51033;42.648;23.292;2023-05-19T04:50:32;11.80;;;9.02;;
30934;SDS011;51033;42.648;23.292;2023-05-19T04:52:57;11.63;;;9.13;;
30934;SDS011;51033;42.648;23.292;2023-05-19T04:55:23;13.07;;;9.30;;
30934;SDS011;51033;42.648;23.292;2023-05-19T04:57:48;13.60;;;9.25;;
30934;SDS011;51033;42.648;23.292;2023-05-19T05:00:14;14.70;;;9.98;;
30934;SDS011;51033;42.648;23.292;2023-05-19T05:02:39;17.27;;;9.88;;
30934;SDS011;51033;42.648;23.292;2023-05-19T05:05:06;15.13;;;9.70;;
30934;SDS011;51033;42.648;23.292;2023-05-19T05:07:33;10.23;;;8.82;;
30934;SDS011;51033;42.648;23.292;2023-05-19T05:09:58;12.45;;;8.38;;
30934;SDS011;51033;42.648;23.292;2023-05-19T05:12:24;11.85;;;8.98;;
30934;SDS011;51033;42.648;23.292;2023-05-19T05:14:49;12.00;;;9.68;;
30934;SDS011;51033;42.648;23.292;2023-05-19T05:17:15;11.57;;;9.27;;
30934;SDS011;51033;42.648;23.292;2023-05-19T05:19:41;14.25;;;9.02;;
30934;SDS011;51033;42.648;23.292;2023-05-19T05:22:06;12.75;;;9.20;;
30934;SDS011;51033;42.648;23.292;2023-05-19T05:24:32;15.73;;;8.32;;
30934;SDS011;51033;42.648;23.292;2023-05-19T05:26:58;12.60;;;9.48;;
30934;SDS011;51033;42.648;23.292;2023-05-19T05:29:23;11.88;;;8.95;;
30934;SDS011;51033;42.648;23.292;2023-05-19T05:31:49;11.43;;;9.52;;
30934;SDS011;51033;42.648;23.292;2023-05-19T05:34:15;12.80;;;8.98;;
30934;SDS011;51033;42.648;23.292;2023-05-19T05:36:40;17.58;;;8.52;;
30934;SDS011;51033;42.648;23.292;2023-05-19T05:39:06;11.48;;;8.98;;
30934;SDS011;51033;42.648;23.292;2023-05-19T05:41:32;10.18;;;8.68;;
30934;SDS011;51033;42.648;23.292;2023-05-19T05:44:02;11.73;;;8.93;;
30934;SDS011;51033;42.648;23.292;2023-05-19T05:46:28;11.52;;;8.63;;
30934;SDS011;51033;42.648;23.292;2023-05-19T05:48:54;11.05;;;8.43;;
30934;SDS011;51033;42.648;23.292;2023-05-19T05:51:20;9.63;;;8.60;;
30934;SDS011;51033;42.648;23.292;2023-05-19T05:53:47;15.55;;;8.00;;
30934;SDS011;51033;42.648;23.292;2023-05-19T05:56:18;12.63;;;8.85;;
30934;SDS011;51033;42.648;23.292;2023-05-19T05:58:45;11.43;;;8.68;;
30934;SDS011;51033;42.648;23.292;2023-05-19T06:01:11;13.77;;;9.00;;
30934;SDS011;51033;42.648;23.292;2023-05-19T06:03:40;15.77;;;10.15;;
30934;SDS011;51033;42.648;23.292;2023-05-19T06:06:06;13.48;;;8.45;;
30934;SDS011;51033;42.648;23.292;2023-05-19T06:08:32;22.52;;;9.30;;
30934;SDS011;51033;42.648;23.292;2023-05-19T06:10:57;16.23;;;9.02;;
30934;SDS011;51033;42.648;23.292;2023-05-19T06:13:23;12.10;;;8.32;;
30934;SDS011;51033;42.648;23.292;2023-05-19T06:15:50;11.77;;;9.43;;
30934;SDS011;51033;42.648;23.292;2023-05-19T06:18:16;12.02;;;8.50;;
30934;SDS011;51033;42.648;23.292;2023-05-19T06:20:41;11.75;;;7.55;;
30934;SDS011;51033;42.648;23.292;2023-05-19T06:23:07;11.43;;;6.65;;
30934;SDS011;51033;42.648;23.292;2023-05-19T06:25:32;10.60;;;7.60;;
30934;SDS011;51033;42.648;23.292;2023-05-19T06:27:57;10.57;;;7.82;;
30934;SDS011;51033;42.648;23.292;2023-05-19T06:30:23;14.10;;;7.25;;
30934;SDS011;51033;42.648;23.292;2023-05-19T06:32:48;10.52;;;7.22;;
30934;SDS011;51033;42.648;23.292;2023-05-19T06:35:13;10.30;;;7.65;;
30934;SDS011;51033;42.648;23.292;2023-05-19T06:37:39;15.30;;;7.80;;
30934;SDS011;51033;42.648;23.292;2023-05-19T06:40:05;8.40;;;6.38;;
30934;SDS011;51033;42.648;23.292;2023-05-19T06:42:31;8.48;;;6.63;;
30934;SDS011;51033;42.648;23.292;2023-05-19T06:44:56;11.52;;;7.43;;
30934;SDS011;51033;42.648;23.292;2023-05-19T06:47:21;10.27;;;6.97;;
30934;SDS011;51033;42.648;23.292;2023-05-19T06:49:47;10.55;;;7.82;;
30934;SDS011;51033;42.648;23.292;2023-05-19T06:52:19;10.18;;;7.25;;
30934;SDS011;51033;42.648;23.292;2023-05-19T06:54:45;15.05;;;8.00;;
30934;SDS011;51033;42.648;23.292;2023-05-19T06:57:10;12.73;;;7.15;;
30934;SDS011;51033;42.648;23.292;2023-05-19T06:59:35;12.00;;;8.45;;
30934;SDS011;51033;42.648;23.292;2023-05-19T07:02:01;9.18;;;7.38;;
30934;SDS011;51033;42.648;23.292;2023-05-19T07:04:28;10.68;;;7.15;;
30934;SDS011;51033;42.648;23.292;2023-05-19T07:06:54;8.25;;;6.57;;
30934;SDS011;51033;42.648;23.292;2023-05-19T07:09:19;8.70;;;6.20;;
30934;SDS011;51033;42.648;23.292;2023-05-19T07:11:44;10.73;;;7.22;;
30934;SDS011;51033;42.648;23.292;2023-05-19T07:14:10;12.35;;;6.57;;
30934;SDS011;51033;42.648;23.292;2023-05-19T07:16:38;12.25;;;6.85;;
30934;SDS011;51033;42.648;23.292;2023-05-19T07:19:03;8.60;;;6.85;;
30934;SDS011;51033;42.648;23.292;2023-05-19T07:21:28;9.60;;;6.38;;
30934;SDS011;51033;42.648;23.292;2023-05-19T07:23:54;9.68;;;7.45;;
30934;SDS011;51033;42.648;23.292;2023-05-19T07:26:20;10.82;;;6.50;;
30934;SDS011;51033;42.648;23.292;2023-05-19T07:28:46;13.35;;;7.13;;
30934;SDS011;51033;42.648;23.292;2023-05-19T07:31:11;8.25;;;7.03;;
30934;SDS011;51033;42.648;23.292;2023-05-19T07:33:37;10.20;;;7.07;;
30934;SDS011;51033;42.648;23.292;2023-05-19T07:36:03;10.18;;;7.43;;
30934;SDS011;51033;42.648;23.292;2023-05-19T07:38:29;11.85;;;7.75;;
30934;SDS011;51033;42.648;23.292;2023-05-19T07:40:58;12.88;;;8.23;;
30934;SDS011;51033;42.648;23.292;2023-05-19T07:43:23;12.98;;;8.55;;
30934;SDS011;51033;42.648;23.292;2023-05-19T07:45:49;19.60;;;9.70;;
30934;SDS011;51033;42.648;23.292;2023-05-19T07:48:15;11.73;;;7.53;;
30934;SDS011;51033;42.648;23.292;2023-05-19T07:50:42;13.20;;;8.27;;
30934;SDS011;51033;42.648;23.292;2023-05-19T07:53:08;15.30;;;8.50;;
30934;SDS011;51033;42.648;23.292;2023-05-19T07:55:33;10.40;;;7.97;;
30934;SDS011;51033;42.648;23.292;2023-05-19T07:57:58;14.68;;;8.57;;
30934;SDS011;51033;42.648;23.292;2023-05-19T08:00:24;10.43;;;8.43;;
30934;SDS011;51033;42.648;23.292;2023-05-19T08:02:50;11.10;;;9.10;;
30934;SDS011;51033;42.648;23.292;2023-05-19T08:05:16;12.82;;;8.05;;
30934;SDS011;51033;42.648;23.292;2023-05-19T08:07:42;16.45;;;7.95;;
30934;SDS011;51033;42.648;23.292;2023-05-19T08:10:07;14.80;;;9.60;;
30934;SDS011;51033;42.648;23.292;2023-05-19T08:12:33;10.00;;;8.68;;
30934;SDS011;51033;42.648;23.292;2023-05-19T08:14:58;15.95;;;10.65;;
30934;SDS011;51033;42.648;23.292;2023-05-19T08:17:24;12.48;;;9.45;;
30934;SDS011;51033;42.648;23.292;2023-05-19T08:19:49;12.43;;;9.75;;
30934;SDS011;51033;42.648;23.292;2023-05-19T08:22:15;14.13;;;10.30;;
30934;SDS011;51033;42.648;23.292;2023-05-19T08:24:40;14.45;;;9.98;;
30934;SDS011;51033;42.648;23.292;2023-05-19T08:27:07;16.08;;;9.77;;
30934;SDS011;51033;42.648;23.292;2023-05-19T08:29:32;12.07;;;9.23;;
30934;SDS011;51033;42.648;23.292;2023-05-19T08:31:58;11.07;;;8.57;;
30934;SDS011;51033;42.648;23.292;2023-05-19T08:34:24;12.88;;;9.32;;
30934;SDS011;51033;42.648;23.292;2023-05-19T08:36:50;19.38;;;10.88;;
30934;SDS011;51033;42.648;23.292;2023-05-19T08:39:15;14.35;;;9.48;;
30934;SDS011;51033;42.648;23.292;2023-05-19T08:41:42;18.55;;;10.55;;
30934;SDS011;51033;42.648;23.292;2023-05-19T08:44:08;11.70;;;9.68;;
30934;SDS011;51033;42.648;23.292;2023-05-19T08:46:34;13.95;;;10.35;;
30934;SDS011;51033;42.648;23.292;2023-05-19T08:49:04;13.27;;;9.82;;
30934;SDS011;51033;42.648;23.292;2023-05-19T08:51:45;17.48;;;11.02;;
30934;SDS011;51033;42.648;23.292;2023-05-19T08:54:14;17.20;;;10.50;;
30934;SDS011;51033;42.648;23.292;2023-05-19T08:56:41;15.20;;;9.52;;
30934;SDS011;51033;42.648;23.292;2023-05-19T08:59:11;13.82;;;9.88;;
30934;SDS011;51033;42.648;23.292;2023-05-19T09:01:38;17.98;;;10.55;;
30934;SDS011;51033;42.648;23.292;2023-05-19T09:04:06;14.40;;;9.90;;
30934;SDS011;51033;42.648;23.292;2023-05-19T09:06:33;17.55;;;10.45;;
30934;SDS011;51033;42.648;23.292;2023-05-19T09:08:59;15.02;;;10.85;;
30934;SDS011;51033;42.648;23.292;2023-05-19T09:11:24;13.90;;;10.38;;
30934;SDS011;51033;42.648;23.292;2023-05-19T09:13:50;13.13;;;10.27;;
30934;SDS011;51033;42.648;23.292;2023-05-19T09:16:15;15.40;;;10.05;;
30934;SDS011;51033;42.648;23.292;2023-05-19T09:18:52;18.00;;;10.50;;
30934;SDS011;51033;42.648;23.292;2023-05-19T09:21:19;16.83;;;12.30;;
30934;SDS011;51033;42.648;23.292;2023-05-19T09:23:50;17.55;;;10.75;;
30934;SDS011;51033;42.648;23.292;2023-05-19T09:26:16;13.68;;;10.43;;
30934;SDS011;51033;42.648;23.292;2023-05-19T09:28:42;15.35;;;11.52;;
30934;SDS011;51033;42.648;23.292;2023-05-19T09:31:08;17.05;;;11.30;;
30934;SDS011;51033;42.648;23.292;2023-05-19T09:33:34;17.83;;;11.43;;
30934;SDS011;51033;42.648;23.292;2023-05-19T09:36:02;15.23;;;11.55;;
30934;SDS011;51033;42.648;23.292;2023-05-19T09:38:30;16.48;;;12.40;;
30934;SDS011;51033;42.648;23.292;2023-05-19T09:40:56;18.95;;;12.13;;
30934;SDS011;51033;42.648;23.292;2023-05-19T09:43:23;14.88;;;11.23;;
30934;SDS011;51033;42.648;23.292;2023-05-19T09:45:53;16.05;;;11.48;;
30934;SDS011;51033;42.648;23.292;2023-05-19T09:48:27;16.33;;;11.45;;
30934;SDS011;51033;42.648;23.292;2023-05-19T09:50:54;16.38;;;11.88;;
30934;SDS011;51033;42.648;23.292;2023-05-19T09:53:21;20.23;;;11.63;;
30934;SDS011;51033;42.648;23.292;2023-05-19T09:55:47;17.48;;;12.43;;
30934;SDS011;51033;42.648;23.292;2023-05-19T09:58:17;17.20;;;11.50;;
30934;SDS011;51033;42.648;23.292;2023-05-19T10:00:43;19.08;;;11.18;;
30934;SDS011;51033;42.648;23.292;2023-05-19T10:03:10;21.10;;;12.20;;
30934;SDS011;51033;42.648;23.292;2023-05-19T10:05:36;16.85;;;11.40;;
30934;SDS011;51033;42.648;23.292;2023-05-19T10:08:02;18.67;;;10.27;;
30934;SDS011;51033;42.648;23.292;2023-05-19T10:10:31;16.00;;;11.45;;
30934;SDS011;51033;42.648;23.292;2023-05-19T10:12:58;16.05;;;10.88;;
30934;SDS011;51033;42.648;23.292;2023-05-19T10:15:24;16.60;;;11.60;;
30934;SDS011;51033;42.648;23.292;2023-05-19T10:17:50;15.95;;;11.52;;
30934;SDS011;51033;42.648;23.292;2023-05-19T10:20:16;20.70;;;12.13;;
30934;SDS011;51033;42.648;23.292;2023-05-19T10:22:42;18.08;;;10.48;;
30934;SDS011;51033;42.648;23.292;2023-05-19T10:25:09;14.27;;;10.73;;
30934;SDS011;51033;42.648;23.292;2023-05-19T10:27:41;17.08;;;11.30;;
30934;SDS011;51033;42.648;23.292;2023-05-19T10:30:13;12.80;;;9.98;;
30934;SDS011;51033;42.648;23.292;2023-05-19T10:32:43;15.75;;;10.80;;
30934;SDS011;51033;42.648;23.292;2023-05-19T10:37:50;23.25;;;11.65;;
30934;SDS011;51033;42.648;23.292;2023-05-19T10:40:28;18.85;;;10.68;;
30934;SDS011;51033;42.648;23.292;2023-05-19T10:45:44;13.18;;;10.43;;
30934;SDS011;51033;42.648;23.292;2023-05-19T10:48:15;18.38;;;10.40;;
30934;SDS011;51033;42.648;23.292;2023-05-19T10:50:43;16.50;;;11.30;;
30934;SDS011;51033;42.648;23.292;2023-05-19T10:53:17;13.75;;;10.25;;
30934;SDS011;51033;42.648;23.292;2023-05-19T10:55:54;16.08;;;10.55;;
30934;SDS011;51033;42.648;23.292;2023-05-19T11:01:14;19.85;;;11.65;;
30934;SDS011;51033;42.648;23.292;2023-05-19T11:03:52;16.65;;;10.45;;
30934;SDS011;51033;42.648;23.292;2023-05-19T11:06:27;13.60;;;11.02;;
30934;SDS011;51033;42.648;23.292;2023-05-19T11:11:24;17.73;;;10.60;;
30934;SDS011;51033;42.648;23.292;2023-05-19T11:13:54;16.13;;;11.15;;
30934;SDS011;51033;42.648;23.292;2023-05-19T11:16:32;14.82;;;10.23;;
30934;SDS011;51033;42.648;23.292;2023-05-19T11:18:58;13.57;;;10.98;;
30934;SDS011;51033;42.648;23.292;2023-05-19T11:21:39;14.88;;;11.23;;
30934;SDS011;51033;42.648;23.292;2023-05-19T11:27:46;16.70;;;9.48;;
30934;SDS011;51033;42.648;23.292;2023-05-19T11:29:51;18.90;;;11.02;;
30934;SDS011;51033;42.648;23.292;2023-05-19T11:32:18;16.52;;;10.68;;
30934;SDS011;51033;42.648;23.292;2023-05-19T11:34:45;19.08;;;10.80;;
30934;SDS011;51033;42.648;23.292;2023-05-19T11:37:12;15.23;;;10.52;;
30934;SDS011;51033;42.648;23.292;2023-05-19T11:39:38;14.35;;;9.70;;
30934;SDS011;51033;42.648;23.292;2023-05-19T11:42:04;12.13;;;9.15;;
30934;SDS011;51033;42.648;23.292;2023-05-19T11:44:30;16.38;;;9.25;;
30934;SDS011;51033;42.648;23.292;2023-05-19T11:46:57;11.85;;;9.02;;
30934;SDS011;51033;42.648;23.292;2023-05-19T11:49:23;14.55;;;9.75;;
30934;SDS011;51033;42.648;23.292;2023-05-19T11:51:49;17.08;;;9.52;;
30934;SDS011;51033;42.648;23.292;2023-05-19T11:54:14;18.17;;;10.13;;
30934;SDS011;51033;42.648;23.292;2023-05-19T11:56:41;16.45;;;10.50;;
30934;SDS011;51033;42.648;23.292;2023-05-19T11:59:07;26.13;;;13.77;;
30934;SDS011;51033;42.648;23.292;2023-05-19T12:01:33;21.30;;;13.02;;
30934;SDS011;51033;42.648;23.292;2023-05-19T12:03:59;15.60;;;10.15;;
30934;SDS011;51033;42.648;23.292;2023-05-19T12:06:25;15.15;;;10.18;;
30934;SDS011;51033;42.648;23.292;2023-05-19T12:08:55;11.85;;;9.13;;
30934;SDS011;51033;42.648;23.292;2023-05-19T12:11:21;12.55;;;8.38;;
30934;SDS011;51033;42.648;23.292;2023-05-19T12:13:47;13.40;;;8.88;;
30934;SDS011;51033;42.648;23.292;2023-05-19T12:16:18;15.98;;;9.52;;
30934;SDS011;51033;42.648;23.292;2023-05-19T12:18:45;14.98;;;9.23;;
30934;SDS011;51033;42.648;23.292;2023-05-19T12:21:10;11.75;;;8.80;;
30934;SDS011;51033;42.648;23.292;2023-05-19T12:23:36;11.20;;;8.85;;
30934;SDS011;51033;42.648;23.292;2023-05-19T12:26:02;10.38;;;7.25;;
30934;SDS011;51033;42.648;23.292;2023-05-19T12:28:28;14.23;;;10.15;;
30934;SDS011;51033;42.648;23.292;2023-05-19T12:30:55;11.43;;;8.75;;
30934;SDS011;51033;42.648;23.292;2023-05-19T12:33:22;13.30;;;8.18;;
30934;SDS011;51033;42.648;23.292;2023-05-19T12:35:48;12.80;;;9.20;;
30934;SDS011;51033;42.648;23.292;2023-05-19T12:38:14;11.85;;;9.77;;
30934;SDS011;51033;42.648;23.292;2023-05-19T12:40:40;11.68;;;8.18;;
30934;SDS011;51033;42.648;23.292;2023-05-19T12:43:07;11.40;;;8.02;;
30934;SDS011;51033;42.648;23.292;2023-05-19T12:45:36;10.63;;;7.75;;
30934;SDS011;51033;42.648;23.292;2023-05-19T12:48:13;11.27;;;7.00;;
30934;SDS011;51033;42.648;23.292;2023-05-19T12:50:40;11.63;;;7.43;;
30934;SDS011;51033;42.648;23.292;2023-05-19T12:53:07;9.82;;;7.05;;
30934;SDS011;51033;42.648;23.292;2023-05-19T12:55:38;9.68;;;6.93;;
30934;SDS011;51033;42.648;23.292;2023-05-19T12:58:06;13.85;;;7.40;;
30934;SDS011;51033;42.648;23.292;2023-05-19T13:00:31;7.80;;;6.80;;
30934;SDS011;51033;42.648;23.292;2023-05-19T13:05:27;9.13;;;6.80;;
30934;SDS011;51033;42.648;23.292;2023-05-19T13:10:20;10.23;;;7.55;;
30934;SDS011;51033;42.648;23.292;2023-05-19T13:12:45;13.95;;;9.35;;
30934;SDS011;51033;42.648;23.292;2023-05-19T13:15:11;11.88;;;8.98;;
30934;SDS011;51033;42.648;23.292;2023-05-19T13:17:36;9.82;;;7.43;;
30934;SDS011;51033;42.648;23.292;2023-05-19T13:20:02;6.70;;;5.95;;
30934;SDS011;51033;42.648;23.292;2023-05-19T13:22:28;8.63;;;6.78;;
30934;SDS011;51033;42.648;23.292;2023-05-19T13:24:54;8.35;;;5.40;;
30934;SDS011;51033;42.648;23.292;2023-05-19T13:27:22;11.88;;;7.75;;
30934;SDS011;51033;42.648;23.292;2023-05-19T13:29:48;11.32;;;7.97;;
30934;SDS011;51033;42.648;23.292;2023-05-19T13:32:14;12.82;;;8.18;;
30934;SDS011;51033;42.648;23.292;2023-05-19T13:34:39;8.07;;;6.28;;
30934;SDS011;51033;42.648;23.292;2023-05-19T13:37:05;8.55;;;7.03;;
30934;SDS011;51033;42.648;23.292;2023-05-19T13:39:33;8.65;;;7.20;;
30934;SDS011;51033;42.648;23.292;2023-05-19T13:41:59;10.32;;;7.72;;
30934;SDS011;51033;42.648;23.292;2023-05-19T13:44:24;10.27;;;7.82;;
30934;SDS011;51033;42.648;23.292;2023-05-19T13:46:50;8.43;;;7.07;;
30934;SDS011;51033;42.648;23.292;2023-05-19T13:49:15;10.23;;;6.85;;
30934;SDS011;51033;42.648;23.292;2023-05-19T13:51:41;12.40;;;8.18;;
30934;SDS011;51033;42.648;23.292;2023-05-19T13:54:10;10.48;;;8.00;;
30934;SDS011;51033;42.648;23.292;2023-05-19T13:56:35;9.40;;;7.78;;
30934;SDS011;51033;42.648;23.292;2023-05-19T13:59:01;11.65;;;8.15;;
30934;SDS011;51033;42.648;23.292;2023-05-19T14:01:28;11.35;;;8.55;;
30934;SDS011;51033;42.648;23.292;2023-05-19T14:03:53;10.38;;;7.47;;
30934;SDS011;51033;42.648;23.292;2023-05-19T14:06:19;9.18;;;7.63;;
30934;SDS011;51033;42.648;23.292;2023-05-19T14:08:44;15.85;;;8.40;;
30934;SDS011;51033;42.648;23.292;2023-05-19T14:11:16;11.93;;;8.82;;
30934;SDS011;51033;42.648;23.292;2023-05-19T14:13:43;12.32;;;7.95;;
30934;SDS011;51033;42.648;23.292;2023-05-19T14:16:09;9.60;;;8.15;;
30934;SDS011;51033;42.648;23.292;2023-05-19T14:18:35;14.52;;;8.32;;
30934;SDS011;51033;42.648;23.292;2023-05-19T14:21:00;10.90;;;8.43;;
30934;SDS011;51033;42.648;23.292;2023-05-19T14:23:25;18.42;;;8.40;;
30934;SDS011;51033;42.648;23.292;2023-05-19T14:25:53;10.88;;;7.20;;
30934;SDS011;51033;42.648;23.292;2023-05-19T14:28:18;12.45;;;8.25;;
30934;SDS011;51033;42.648;23.292;2023-05-19T14:30:43;13.23;;;8.65;;
30934;SDS011;51033;42.648;23.292;2023-05-19T14:33:09;12.10;;;7.95;;
30934;SDS011;51033;42.648;23.292;2023-05-19T14:35:35;10.88;;;7.43;;
30934;SDS011;51033;42.648;23.292;2023-05-19T14:38:00;8.75;;;7.25;;
30934;SDS011;51033;42.648;23.292;2023-05-19T14:40:25;9.60;;;7.38;;
30934;SDS011;51033;42.648;23.292;2023-05-19T14:42:51;11.40;;;7.40;;
30934;SDS011;51033;42.648;23.292;2023-05-19T14:45:16;9.70;;;7.30;;
30934;SDS011;51033;42.648;23.292;2023-05-19T14:47:42;16.83;;;7.60;;
30934;SDS011;51033;42.648;23.292;2023-05-19T14:50:07;14.02;;;7.45;;
30934;SDS011;51033;42.648;23.292;2023-05-19T14:52:33;12.20;;;7.30;;
30934;SDS011;51033;42.648;23.292;2023-05-19T14:54:58;11.50;;;8.32;;
30934;SDS011;51033;42.648;23.292;2023-05-19T14:57:24;12.13;;;7.10;;